Terminal Aerodrome Forecast
Issued by NWS

Home | Current Version | Previous Version | Text Only | Print | Product List | Glossary On
Versions: 1 2 3 4 5 6 7 8 9 10 11 12 13 14 15 16
000
FTUS46 KSEW 011722
TAFHQM
TAF
KHQM 011722Z 0118/0218 22012KT P6SM SCT025 BKN050
      TEMPO 0118/0122 -SHRA BKN025 OVC050
     FM020100 17008KT P6SM BKN020 OVC040
     FM021500 14008KT P6SM -RA OVC020=

USA.gov is the U.S. government's official web portal to all federal, state and local government web resources and services.